Time;durP1;ratioP1;P1;durP2;ratioP2;P2;SDS_P1;SDS_P2;PMS_P1;PMS_P2;Temp;Humidity;BMP_temperature;BMP_pressure;BME280_temperature;BME280_humidity;BME280_pressure;Samples;Min_cycle;Max_cycle;Signal;HPM_P1;HPM_P2
2022/01/16 00:04:09;;;;;;;52.75;19.83;;;1.40;99.90;;;;;;5035079;28;20408;-88
2022/01/16 00:06:39;;;;;;;64.82;22.85;;;1.40;99.90;;;;;;5035591;28;20078;-81
2022/01/16 00:09:05;;;;;;;60.08;21.38;;;1.40;99.90;;;;;;5033911;28;20053;-88
2022/01/16 00:11:32;;;;;;;66.80;23.67;;;1.30;99.90;;;;;;5032354;28;20057;-86
2022/01/16 00:13:58;;;;;;;66.13;22.67;;;1.30;99.90;;;;;;5033911;28;20053;-86
2022/01/16 00:16:24;;;;;;;72.50;24.80;;;1.30;99.90;;;;;;5033776;28;20046;-91
2022/01/16 00:18:49;;;;;;;62.92;23.27;;;1.30;99.90;;;;;;5031875;28;20102;-86
2022/01/16 00:21:17;;;;;;;66.40;24.08;;;1.80;99.90;;;;;;5033771;28;20053;-82
2022/01/16 00:23:44;;;;;;;73.40;24.92;;;1.30;99.90;;;;;;5034061;28;20041;-82
2022/01/16 00:26:09;;;;;;;62.47;21.10;;;1.30;99.90;;;;;;5033636;28;20114;-84
2022/01/16 00:28:36;;;;;;;66.07;21.02;;;1.30;99.90;;;;;;5033797;28;20495;-82
2022/01/16 00:31:01;;;;;;;75.60;25.35;;;1.20;99.90;;;;;;5033214;28;20562;-80
2022/01/16 00:33:27;;;;;;;66.63;22.33;;;1.90;99.90;;;;;;5032135;28;20076;-83
2022/01/16 00:35:52;;;;;;;70.03;24.23;;;1.20;99.90;;;;;;5033037;28;20041;-89
2022/01/16 00:38:18;;;;;;;77.47;25.27;;;1.20;99.90;;;;;;5033605;28;20046;-91
2022/01/16 00:40:44;;;;;;;81.32;26.88;;;1.20;99.90;;;;;;5032749;28;20136;-87
2022/01/16 00:43:10;;;;;;;84.63;28.73;;;1.20;99.90;;;;;;5033400;28;20052;-87
2022/01/16 00:45:35;;;;;;;80.30;25.23;;;1.20;99.90;;;;;;5031902;28;20081;-83
2022/01/16 00:48:05;;;;;;;86.97;27.90;;;1.20;99.90;;;;;;5033133;28;20392;-85
2022/01/16 00:50:32;;;;;;;80.95;25.45;;;1.20;99.90;;;;;;5032919;28;20057;-87
2022/01/16 00:52:58;;;;;;;98.47;29.92;;;1.20;99.90;;;;;;5031688;28;20055;-89
2022/01/16 00:55:24;;;;;;;89.97;29.35;;;1.20;99.90;;;;;;5032765;28;20049;-89
2022/01/16 00:57:50;;;;;;;104.15;31.48;;;1.20;99.90;;;;;;5033311;28;20064;-89
2022/01/16 01:00:16;;;;;;;100.07;30.88;;;1.30;99.90;;;;;;5032248;28;20081;-80
2022/01/16 01:02:42;;;;;;;92.65;28.23;;;1.30;99.90;;;;;;5033236;28;20496;-88
2022/01/16 01:05:08;;;;;;;91.22;28.58;;;1.30;99.90;;;;;;5033128;28;20061;-89
2022/01/16 01:07:35;;;;;;;85.53;27.60;;;1.30;99.90;;;;;;5032609;28;20052;-83
2022/01/16 01:10:01;;;;;;;81.60;29.70;;;1.30;99.90;;;;;;5032982;28;20505;-86
2022/01/16 01:12:33;;;;;;;70.50;25.27;;;1.30;99.90;;;;;;5014751;28;20061;-83
2022/01/16 01:15:07;;;;;;;83.63;29.15;;;1.30;99.90;;;;;;5031269;28;20072;-84
2022/01/16 01:17:45;;;;;;;84.82;30.17;;;1.30;99.90;;;;;;5032779;28;20042;-85
2022/01/16 01:20:14;;;;;;;86.18;27.98;;;1.30;99.90;;;;;;5031206;28;20055;-83
2022/01/16 01:22:40;;;;;;;101.75;31.20;;;1.30;99.90;;;;;;5032011;28;20048;-85
2022/01/16 01:25:06;;;;;;;93.18;32.22;;;1.30;99.90;;;;;;5032433;28;20057;-87
2022/01/16 01:27:33;;;;;;;90.57;30.90;;;1.30;99.90;;;;;;5031127;28;20144;-83
2022/01/16 01:30:06;;;;;;;90.13;27.92;;;1.30;99.90;;;;;;5031149;28;20401;-84
2022/01/16 01:32:42;;;;;;;86.30;31.08;;;1.30;99.90;;;;;;5032408;28;20468;-86
2022/01/16 01:35:10;;;;;;;87.00;30.23;;;1.30;99.90;;;;;;5032172;28;20488;-84
2022/01/16 01:37:36;;;;;;;96.47;30.85;;;1.30;99.90;;;;;;5031800;28;20055;-86
2022/01/16 01:40:05;;;;;;;96.38;31.58;;;1.30;99.90;;;;;;5030653;28;20128;-87
2022/01/16 01:42:34;;;;;;;86.15;30.70;;;1.30;99.90;;;;;;5032006;28;20141;-86
2022/01/16 01:53:16;;;;;;;106.78;32.20;;;1.30;99.90;;;;;;5030401;28;20038;-88
2022/01/16 01:55:44;;;;;;;102.78;33.65;;;1.40;99.90;;;;;;5030287;28;20066;-87
2022/01/16 01:58:10;;;;;;;96.85;32.33;;;1.30;99.90;;;;;;5031642;28;20092;-82
2022/01/16 02:00:38;;;;;;;109.40;32.17;;;1.40;99.90;;;;;;5031336;28;20041;-85
2022/01/16 02:03:18;;;;;;;106.68;33.05;;;1.40;99.90;;;;;;5031900;28;20128;-86
2022/01/16 02:05:44;;;;;;;105.32;33.25;;;1.40;99.90;;;;;;5031709;28;20502;-82
2022/01/16 02:08:11;;;;;;;103.22;31.95;;;1.40;99.90;;;;;;5031662;28;20124;-87
2022/01/16 02:10:38;;;;;;;107.07;33.45;;;1.40;99.90;;;;;;5012977;28;20064;-85
2022/01/16 02:13:08;;;;;;;109.43;33.95;;;1.40;99.90;;;;;;5031462;28;20052;-86
2022/01/16 02:31:46;;;;;;;119.65;34.83;;;1.40;99.90;;;;;;5031093;28;20064;-87
2022/01/16 02:36:59;;;;;;;116.55;33.45;;;1.40;99.90;;;;;;5031236;28;20064;-86
2022/01/16 02:39:27;;;;;;;142.40;35.83;;;1.40;99.90;;;;;;5029606;28;20100;-85
2022/01/16 02:41:54;;;;;;;123.25;32.03;;;1.40;99.90;;;;;;5013141;28;20072;-89
2022/01/16 02:44:29;;;;;;;120.90;34.92;;;1.40;99.90;;;;;;5031230;28;20156;-80
2022/01/16 02:46:57;;;;;;;116.57;32.53;;;1.40;99.90;;;;;;5030754;28;20057;-83
2022/01/16 02:49:25;;;;;;;116.03;31.52;;;1.40;99.90;;;;;;5031090;28;20045;-84
2022/01/16 02:52:00;;;;;;;110.95;30.83;;;1.40;99.90;;;;;;5029902;28;20064;-91
2022/01/16 02:54:27;;;;;;;133.35;34.38;;;1.40;99.90;;;;;;5029118;28;20049;-84
2022/01/16 02:56:53;;;;;;;115.07;33.28;;;1.40;99.90;;;;;;5029082;28;20053;-87
2022/01/16 02:59:20;;;;;;;114.50;32.10;;;1.40;99.90;;;;;;5028896;28;20042;-89
2022/01/16 03:01:45;;;;;;;111.32;32.50;;;1.40;99.90;;;;;;5030925;28;20404;-81
2022/01/16 03:04:11;;;;;;;113.95;31.88;;;1.40;99.90;;;;;;5030837;28;20068;-87
2022/01/16 03:06:37;;;;;;;112.60;32.00;;;1.40;99.90;;;;;;5030665;28;20049;-82
2022/01/16 03:09:08;;;;;;;109.20;31.35;;;1.40;99.90;;;;;;5030775;28;20047;-85
2022/01/16 03:11:37;;;;;;;105.55;30.55;;;1.40;99.90;;;;;;5029093;28;20120;-85
2022/01/16 03:14:04;;;;;;;114.85;33.30;;;1.40;99.90;;;;;;5030372;28;20053;-84
2022/01/16 03:16:30;;;;;;;117.25;34.00;;;1.40;99.90;;;;;;5030690;28;20045;-86
2022/01/16 03:21:54;;;;;;;115.68;32.25;;;1.50;99.90;;;;;;4988011;28;20144;-81
2022/01/16 03:24:29;;;;;;;103.85;31.50;;;1.40;99.90;;;;;;4972188;28;20489;-83
2022/01/16 03:26:57;;;;;;;133.05;34.90;;;1.50;99.90;;;;;;4988657;28;20058;-88
2022/01/16 03:29:24;;;;;;;118.45;30.45;;;1.50;99.90;;;;;;4971740;28;20746;-88
2022/01/16 03:31:50;;;;;;;113.35;31.77;;;1.50;99.90;;;;;;4972554;28;20549;-82
2022/01/16 03:34:16;;;;;;;132.10;32.42;;;1.50;99.90;;;;;;4972605;28;20058;-83
2022/01/16 03:36:42;;;;;;;135.55;33.85;;;1.50;99.90;;;;;;4972243;28;20050;-86
2022/01/16 03:39:08;;;;;;;130.27;33.88;;;1.50;99.90;;;;;;4988612;28;20054;-89
2022/01/16 03:41:34;;;;;;;116.93;31.48;;;1.60;99.90;;;;;;4970578;28;20055;-87
2022/01/16 03:44:02;;;;;;;135.65;34.58;;;1.60;99.90;;;;;;4968628;28;20054;-80
2022/01/16 03:46:35;;;;;;;129.88;34.92;;;1.60;99.90;;;;;;4969061;28;20051;-85
2022/01/16 03:49:08;;;;;;;135.38;34.63;;;1.60;99.90;;;;;;4952859;28;20054;-88
2022/01/16 03:51:36;;;;;;;146.40;36.70;;;1.60;99.90;;;;;;4976574;28;20112;-89
2022/01/16 03:54:03;;;;;;;142.90;36.25;;;1.60;99.90;;;;;;4966743;28;20105;-84
2022/01/16 03:56:28;;;;;;;159.23;37.17;;;1.60;99.90;;;;;;4974754;28;20521;-88
2022/01/16 03:58:54;;;;;;;167.77;37.55;;;1.60;99.90;;;;;;5029725;28;20056;-81
2022/01/16 04:01:20;;;;;;;146.20;35.60;;;1.70;99.90;;;;;;5029706;28;20049;-87
2022/01/16 04:03:46;;;;;;;148.63;36.38;;;1.70;99.90;;;;;;5030201;28;20618;-85
2022/01/16 04:06:12;;;;;;;159.20;37.50;;;1.70;99.90;;;;;;5028715;28;20112;-85
2022/01/16 04:08:38;;;;;;;150.23;36.80;;;1.70;99.90;;;;;;5029201;28;20120;-82
2022/01/16 04:11:04;;;;;;;158.68;36.25;;;1.70;99.90;;;;;;5028551;28;20183;-87
2022/01/16 04:13:31;;;;;;;128.00;33.35;;;1.80;99.90;;;;;;5030022;28;20099;-82
2022/01/16 04:15:58;;;;;;;162.02;38.03;;;1.80;99.90;;;;;;5029930;28;20404;-82
2022/01/16 04:18:23;;;;;;;157.05;37.25;;;1.90;99.90;;;;;;5029915;28;20052;-86
2022/01/16 04:20:49;;;;;;;144.20;34.45;;;1.90;99.90;;;;;;5029409;28;20053;-86
2022/01/16 04:23:15;;;;;;;152.15;36.80;;;2.20;99.90;;;;;;5028162;28;20085;-87
2022/01/16 04:25:40;;;;;;;175.25;38.03;;;1.90;99.90;;;;;;5028587;28;20481;-82
2022/01/16 04:28:06;;;;;;;161.25;37.00;;;1.90;99.90;;;;;;5029834;28;20076;-90
2022/01/16 04:30:32;;;;;;;201.02;41.25;;;1.90;99.90;;;;;;5017035;28;20056;-84
2022/01/16 04:32:58;;;;;;;170.55;41.05;;;2.00;99.90;;;;;;5029671;28;20037;-85
2022/01/16 04:35:23;;;;;;;179.10;41.08;;;2.00;99.90;;;;;;5031913;28;20045;-80
2022/01/16 04:37:50;;;;;;;185.80;40.63;;;2.00;99.90;;;;;;5032117;28;20045;-88
2022/01/16 04:40:16;;;;;;;183.05;41.28;;;2.10;99.90;;;;;;5033010;28;20122;-87
2022/01/16 04:45:27;;;;;;;183.73;38.92;;;2.10;99.90;;;;;;5031616;28;20057;-84
2022/01/16 04:47:53;;;;;;;189.73;40.63;;;2.10;99.90;;;;;;5032553;28;20056;-82
2022/01/16 04:50:22;;;;;;;183.60;40.78;;;2.10;99.90;;;;;;5033122;28;20456;-82
2022/01/16 04:52:48;;;;;;;185.93;39.38;;;2.20;99.90;;;;;;5047540;28;20049;-80
2022/01/16 04:55:15;;;;;;;190.35;41.80;;;2.20;99.90;;;;;;5032707;28;20386;-81
2022/01/16 04:57:41;;;;;;;179.38;39.83;;;2.20;99.90;;;;;;5031920;28;20057;-81
2022/01/16 05:00:12;;;;;;;181.23;41.70;;;2.20;99.90;;;;;;5030852;28;20463;-81
2022/01/16 05:02:38;;;;;;;193.48;42.13;;;2.30;99.90;;;;;;5032537;28;20103;-87
2022/01/16 05:05:04;;;;;;;188.07;42.30;;;2.30;99.90;;;;;;5014945;28;20033;-88
2022/01/16 05:07:30;;;;;;;180.65;38.78;;;2.30;99.90;;;;;;5031326;28;20089;-85
2022/01/16 05:09:56;;;;;;;167.88;39.35;;;2.90;99.90;;;;;;5033076;28;20076;-87
2022/01/16 05:12:34;;;;;;;202.60;41.33;;;2.30;99.90;;;;;;5035393;28;20049;-88
2022/01/16 05:17:45;;;;;;;209.00;40.58;;;2.40;99.90;;;;;;5033620;28;20128;-87
2022/01/16 05:20:11;;;;;;;215.75;41.78;;;2.40;99.90;;;;;;5033176;28;20140;-81
2022/01/16 05:22:37;;;;;;;186.90;41.05;;;2.40;99.90;;;;;;5033546;28;20134;-84
2022/01/16 05:25:07;;;;;;;193.45;41.67;;;2.40;99.90;;;;;;5031855;28;20056;-81
2022/01/16 05:27:34;;;;;;;196.05;41.10;;;2.40;99.90;;;;;;5032405;28;20124;-87
2022/01/16 05:29:59;;;;;;;219.20;41.83;;;2.50;99.90;;;;;;5031608;28;20046;-81
2022/01/16 05:32:25;;;;;;;201.27;41.13;;;2.40;99.90;;;;;;5031158;28;20526;-81
2022/01/16 05:34:51;;;;;;;231.10;44.50;;;2.50;99.90;;;;;;5031910;28;20453;-80
2022/01/16 05:37:16;;;;;;;231.13;42.75;;;2.50;99.90;;;;;;5032372;28;20644;-86
2022/01/16 05:39:44;;;;;;;221.13;43.22;;;2.50;99.90;;;;;;5030680;28;20055;-84
2022/01/16 05:42:11;;;;;;;209.15;43.55;;;2.50;99.90;;;;;;5015070;28;20045;-83
2022/01/16 05:44:36;;;;;;;203.98;43.38;;;2.50;99.90;;;;;;5030830;28;20046;-82
2022/01/16 05:47:04;;;;;;;193.60;41.85;;;2.60;99.90;;;;;;5031629;28;20099;-87
2022/01/16 05:49:30;;;;;;;203.50;40.42;;;2.60;99.90;;;;;;5030954;28;20037;-82
2022/01/16 05:51:56;;;;;;;209.32;43.97;;;2.60;99.90;;;;;;5030529;28;20056;-81
2022/01/16 05:54:21;;;;;;;209.85;43.17;;;2.60;99.90;;;;;;5028644;28;20060;-82
2022/01/16 05:56:47;;;;;;;194.88;41.88;;;2.60;99.90;;;;;;5029203;28;20083;-84
2022/01/16 05:59:12;;;;;;;226.40;46.03;;;2.60;99.90;;;;;;5029836;28;20072;-87
2022/01/16 06:01:38;;;;;;;200.07;42.70;;;2.70;99.90;;;;;;5029386;28;20703;-89
2022/01/16 06:04:04;;;;;;;215.90;43.80;;;2.70;99.90;;;;;;5029265;28;20053;-84
2022/01/16 06:06:30;;;;;;;215.90;43.30;;;2.70;99.90;;;;;;5030165;28;20148;-81
2022/01/16 06:08:55;;;;;;;215.85;45.90;;;2.70;99.90;;;;;;5029541;28;20048;-82
2022/01/16 06:11:21;;;;;;;209.00;43.95;;;2.80;99.90;;;;;;5028789;28;20496;-84
2022/01/16 06:13:46;;;;;;;232.63;43.17;;;2.80;99.90;;;;;;5029439;28;20128;-84
2022/01/16 06:16:12;;;;;;;199.13;43.30;;;2.80;99.90;;;;;;5028443;28;20049;-84
2022/01/16 06:18:38;;;;;;;193.60;41.58;;;2.80;99.90;;;;;;5030127;28;20493;-86
2022/01/16 06:21:04;;;;;;;214.82;43.45;;;2.90;99.90;;;;;;5029774;28;20056;-84
2022/01/16 06:23:30;;;;;;;194.13;43.53;;;2.80;99.90;;;;;;5030310;28;20049;-83
2022/01/16 06:25:55;;;;;;;185.02;43.45;;;2.90;99.90;;;;;;5029101;28;20396;-87
2022/01/16 06:28:25;;;;;;;196.05;45.00;;;2.90;99.90;;;;;;5013273;28;20045;-85
2022/01/16 06:30:51;;;;;;;201.05;45.67;;;3.00;99.90;;;;;;5030197;28;20037;-83
2022/01/16 06:33:17;;;;;;;204.10;46.53;;;3.00;99.90;;;;;;5022254;28;20620;-86
2022/01/16 06:35:43;;;;;;;177.75;42.33;;;3.00;99.90;;;;;;5029912;28;20045;-88
2022/01/16 06:38:09;;;;;;;181.25;41.55;;;3.00;99.90;;;;;;5029571;28;20148;-89
2022/01/16 06:40:34;;;;;;;218.52;43.97;;;3.10;99.90;;;;;;5030117;28;20049;-88
2022/01/16 06:43:00;;;;;;;215.27;46.20;;;3.10;99.90;;;;;;5028171;28;20050;-89
2022/01/16 06:45:26;;;;;;;177.73;45.08;;;3.10;99.90;;;;;;5028529;28;20152;-84
2022/01/16 06:47:52;;;;;;;200.07;45.78;;;3.10;99.90;;;;;;5012525;28;20132;-87
2022/01/16 06:50:18;;;;;;;204.05;47.42;;;3.10;99.90;;;;;;5028191;28;20045;-82
2022/01/16 06:52:44;;;;;;;199.75;45.22;;;3.20;99.90;;;;;;5027409;28;20048;-86
2022/01/16 06:55:10;;;;;;;188.38;44.90;;;3.20;99.90;;;;;;5027915;28;20061;-87
2022/01/16 06:57:36;;;;;;;196.07;47.97;;;3.20;99.90;;;;;;5028006;28;20055;-89
2022/01/16 07:00:05;;;;;;;200.68;46.17;;;3.20;99.90;;;;;;5029516;28;20041;-86
2022/01/16 07:02:31;;;;;;;203.02;47.17;;;3.30;99.90;;;;;;5029061;28;20081;-88
2022/01/16 07:04:56;;;;;;;182.82;45.55;;;3.30;99.90;;;;;;5029725;28;20083;-87
2022/01/16 07:07:22;;;;;;;189.85;45.47;;;3.30;99.90;;;;;;5010490;28;20053;-81
2022/01/16 07:09:48;;;;;;;195.38;47.08;;;3.40;99.90;;;;;;5029586;28;20457;-89
2022/01/16 07:12:14;;;;;;;171.77;42.53;;;3.40;99.90;;;;;;5030216;28;20396;-85
2022/01/16 07:14:40;;;;;;;189.77;48.40;;;3.40;99.90;;;;;;5029023;28;20065;-84
2022/01/16 07:17:05;;;;;;;175.18;46.58;;;3.50;99.90;;;;;;5029259;28;20794;-86
2022/01/16 07:19:31;;;;;;;167.40;46.08;;;3.50;99.90;;;;;;5028989;28;20056;-82
2022/01/16 07:21:57;;;;;;;178.82;45.25;;;3.50;99.90;;;;;;5028187;28;20076;-86
2022/01/16 07:24:22;;;;;;;179.75;47.08;;;3.60;99.90;;;;;;5027765;28;20037;-82
2022/01/16 07:26:48;;;;;;;151.52;43.83;;;3.60;99.90;;;;;;5029157;28;20049;-82
2022/01/16 07:29:13;;;;;;;161.93;44.28;;;3.60;99.90;;;;;;5028073;28;20053;-89
2022/01/16 07:31:39;;;;;;;174.45;47.13;;;3.60;99.90;;;;;;5029548;28;20053;-92
2022/01/16 07:34:06;;;;;;;168.95;46.83;;;3.70;99.90;;;;;;5029024;28;20061;-81
2022/01/16 07:36:32;;;;;;;151.20;42.00;;;3.70;99.90;;;;;;5029313;28;20084;-88
2022/01/16 07:38:58;;;;;;;138.60;42.20;;;3.70;99.90;;;;;;5027224;28;20370;-89
2022/01/16 07:41:24;;;;;;;157.95;44.90;;;3.80;99.90;;;;;;5029253;28;20069;-87
2022/01/16 07:43:50;;;;;;;147.75;45.22;;;3.80;99.90;;;;;;5028306;28;20095;-86
2022/01/16 07:46:17;;;;;;;144.43;43.55;;;3.90;99.90;;;;;;5029056;28;20042;-84
2022/01/16 07:48:43;;;;;;;144.20;44.70;;;3.90;99.90;;;;;;5023969;28;20046;-86
2022/01/16 07:51:09;;;;;;;142.00;41.47;;;4.00;99.90;;;;;;5026032;28;20111;-82
2022/01/16 07:53:36;;;;;;;128.98;40.00;;;4.00;99.90;;;;;;5029406;28;20050;-84
2022/01/16 07:56:03;;;;;;;124.90;40.47;;;4.60;99.90;;;;;;5028316;28;20057;-87
2022/01/16 07:58:28;;;;;;;129.90;40.90;;;4.00;99.90;;;;;;5029045;28;20054;-86
2022/01/16 08:00:56;;;;;;;127.43;42.95;;;4.10;99.90;;;;;;5028537;28;20558;-87
2022/01/16 08:03:22;;;;;;;136.93;43.55;;;4.10;99.90;;;;;;5029026;28;20087;-87
2022/01/16 08:05:48;;;;;;;128.52;41.00;;;4.10;99.90;;;;;;5029447;28;20757;-85
2022/01/16 08:08:14;;;;;;;123.15;42.35;;;4.10;99.90;;;;;;5029138;28;20037;-84
2022/01/16 08:10:40;;;;;;;132.60;42.63;;;4.10;99.90;;;;;;5032471;28;20143;-90
2022/01/16 08:13:06;;;;;;;120.32;39.28;;;4.10;99.90;;;;;;5033392;28;20392;-81
2022/01/16 08:15:31;;;;;;;123.85;41.22;;;4.10;99.90;;;;;;5032475;28;20041;-83
2022/01/16 08:17:57;;;;;;;124.18;41.63;;;4.90;99.90;;;;;;5033183;28;20047;-85
2022/01/16 08:20:23;;;;;;;121.80;39.92;;;4.20;99.90;;;;;;5025301;28;20054;-87
2022/01/16 08:22:49;;;;;;;122.00;42.10;;;4.20;99.90;;;;;;5032279;28;20058;-82
2022/01/16 08:25:15;;;;;;;120.97;41.40;;;5.00;99.90;;;;;;5033627;28;20148;-90
2022/01/16 08:27:41;;;;;;;126.05;41.10;;;4.20;99.90;;;;;;5032606;28;20504;-84
2022/01/16 08:30:08;;;;;;;119.90;39.58;;;4.20;99.90;;;;;;5018323;28;20049;-84
2022/01/16 08:32:34;;;;;;;122.70;41.20;;;4.20;99.90;;;;;;5039546;28;20072;-84
2022/01/16 08:35:00;;;;;;;119.47;40.72;;;4.30;99.90;;;;;;5037259;28;20053;-82
2022/01/16 08:37:27;;;;;;;121.95;40.88;;;4.20;99.90;;;;;;5018910;28;20051;-85
2022/01/16 08:39:52;;;;;;;108.00;37.45;;;4.30;99.90;;;;;;5034995;28;20049;-78
2022/01/16 08:42:18;;;;;;;119.93;40.70;;;4.30;99.90;;;;;;5032917;28;20076;-83
2022/01/16 08:44:44;;;;;;;115.47;39.50;;;4.30;99.90;;;;;;5031989;28;20738;-86
2022/01/16 08:47:09;;;;;;;111.65;39.33;;;4.30;99.90;;;;;;5033784;28;20676;-88
2022/01/16 08:49:35;;;;;;;117.53;41.13;;;4.30;99.90;;;;;;5031750;28;20095;-82
2022/01/16 08:52:02;;;;;;;105.80;38.80;;;4.40;99.90;;;;;;5032259;28;20049;-82
2022/01/16 08:54:28;;;;;;;125.32;41.90;;;4.40;99.90;;;;;;5031332;28;20082;-87
2022/01/16 08:56:54;;;;;;;115.53;39.00;;;4.40;99.90;;;;;;5030433;28;20050;-81
2022/01/16 08:59:20;;;;;;;107.55;38.50;;;4.50;99.90;;;;;;5031910;28;20480;-81
2022/01/16 09:01:45;;;;;;;98.65;36.90;;;4.50;99.90;;;;;;5030529;28;20068;-86
2022/01/16 09:04:11;;;;;;;87.53;36.83;;;4.60;99.90;;;;;;5030617;28;20121;-83
2022/01/16 09:06:37;;;;;;;88.88;37.50;;;4.60;99.90;;;;;;5030695;28;20059;-80
2022/01/16 09:09:03;;;;;;;91.90;35.17;;;4.60;99.90;;;;;;5029771;28;20120;-85
2022/01/16 09:11:28;;;;;;;72.97;33.72;;;4.70;99.90;;;;;;5030638;28;20041;-87
2022/01/16 09:13:55;;;;;;;70.30;32.92;;;4.70;99.90;;;;;;5030890;28;20052;-87
2022/01/16 09:16:21;;;;;;;76.88;31.63;;;4.80;99.90;;;;;;5030476;28;20121;-88
2022/01/16 09:18:48;;;;;;;73.70;33.40;;;5.10;99.90;;;;;;5031023;28;20081;-85
2022/01/16 09:21:16;;;;;;;67.32;31.52;;;4.90;99.90;;;;;;5028719;28;20038;-81
2022/01/16 09:23:44;;;;;;;67.05;30.67;;;4.90;99.90;;;;;;5031354;28;20487;-83
2022/01/16 09:26:09;;;;;;;63.22;30.20;;;5.20;99.90;;;;;;5029835;28;20119;-83
2022/01/16 09:28:35;;;;;;;65.20;30.75;;;5.00;99.90;;;;;;5032183;28;20049;-85
2022/01/16 09:31:00;;;;;;;60.28;29.55;;;5.10;99.90;;;;;;5031823;28;20750;-87
2022/01/16 09:33:26;;;;;;;70.18;31.50;;;5.10;99.90;;;;;;5031206;28;20049;-83
2022/01/16 09:35:52;;;;;;;64.55;29.10;;;5.10;99.90;;;;;;5031417;28;20095;-85
2022/01/16 09:38:18;;;;;;;52.28;25.30;;;5.20;99.90;;;;;;5031643;28;20045;-86
2022/01/16 09:40:46;;;;;;;56.15;27.85;;;5.30;99.90;;;;;;5030818;28;20057;-87
2022/01/16 09:43:12;;;;;;;57.60;26.88;;;5.30;99.90;;;;;;5031616;28;20121;-82
2022/01/16 09:45:37;;;;;;;55.88;27.23;;;5.40;99.90;;;;;;5031506;28;20129;-87
2022/01/16 09:48:04;;;;;;;54.72;25.52;;;5.40;99.90;;;;;;5031834;28;20112;-80
2022/01/16 09:50:30;;;;;;;49.17;25.38;;;5.50;99.90;;;;;;5035877;28;20087;-84
2022/01/16 09:52:56;;;;;;;57.38;26.17;;;5.50;99.90;;;;;;5036142;28;20049;-87
2022/01/16 09:55:22;;;;;;;63.00;26.73;;;5.60;99.90;;;;;;5036218;28;20057;-82
2022/01/16 09:57:50;;;;;;;53.92;25.27;;;5.60;99.90;;;;;;5034028;28;20054;-86
2022/01/16 10:00:18;;;;;;;53.13;26.48;;;5.60;99.90;;;;;;5031153;28;20416;-79
2022/01/16 10:02:45;;;;;;;51.95;24.35;;;5.70;99.90;;;;;;5030928;28;20053;-82
2022/01/16 10:05:24;;;;;;;48.17;23.83;;;5.70;99.90;;;;;;5031549;28;20064;-87
2022/01/16 10:07:50;;;;;;;43.47;22.45;;;5.70;99.90;;;;;;5030547;28;20049;-83
2022/01/16 10:10:16;;;;;;;47.83;23.63;;;5.80;99.90;;;;;;5030739;28;20431;-83
2022/01/16 10:12:51;;;;;;;46.20;23.90;;;5.80;99.90;;;;;;5029947;28;20116;-83
2022/01/16 10:15:25;;;;;;;49.40;22.90;;;5.80;99.90;;;;;;5024272;28;20512;-83
2022/01/16 10:17:56;;;;;;;41.30;23.00;;;5.80;99.90;;;;;;5030132;28;20566;-84
2022/01/16 10:20:24;;;;;;;48.20;22.08;;;5.90;99.90;;;;;;5030480;28;20671;-82
2022/01/16 10:22:56;;;;;;;42.38;21.35;;;5.90;99.90;;;;;;5028518;28;20057;-84
2022/01/16 10:25:35;;;;;;;58.72;21.20;;;5.90;99.90;;;;;;5029817;28;20057;-83
2022/01/16 10:28:04;;;;;;;44.42;17.60;;;6.50;99.90;;;;;;5030063;28;20050;-83
2022/01/16 10:30:43;;;;;;;48.35;22.23;;;6.00;99.90;;;;;;5029837;28;20109;-82
2022/01/16 10:33:17;;;;;;;40.17;20.40;;;6.00;99.90;;;;;;5026153;28;20111;-80
2022/01/16 10:35:47;;;;;;;47.30;20.85;;;6.10;99.90;;;;;;5031350;28;20072;-82
2022/01/16 10:38:18;;;;;;;51.90;20.65;;;6.00;99.90;;;;;;5029622;28;20059;-80
2022/01/16 10:40:50;;;;;;;42.92;19.80;;;6.50;99.90;;;;;;5027984;28;20089;-87
2022/01/16 10:43:21;;;;;;;38.47;19.13;;;6.10;99.90;;;;;;5030625;28;20045;-83
2022/01/16 10:45:51;;;;;;;40.58;19.17;;;6.10;99.90;;;;;;5028694;28;20120;-80
2022/01/16 10:48:24;;;;;;;43.45;18.35;;;6.10;99.90;;;;;;5011596;28;20042;-86
2022/01/16 10:50:51;;;;;;;41.88;19.35;;;6.10;99.90;;;;;;5029750;28;20064;-85
2022/01/16 10:53:20;;;;;;;36.03;17.30;;;6.10;99.90;;;;;;5030059;28;20077;-80
2022/01/16 10:55:57;;;;;;;44.10;18.58;;;6.10;99.90;;;;;;5029391;28;20111;-80
2022/01/16 10:58:38;;;;;;;40.10;17.95;;;6.10;99.90;;;;;;5028505;28;20160;-82
2022/01/16 11:01:16;;;;;;;33.97;16.38;;;6.10;99.90;;;;;;5030200;28;20049;-85
2022/01/16 11:03:45;;;;;;;35.17;16.50;;;6.10;99.90;;;;;;5028010;28;20111;-85
2022/01/16 11:06:12;;;;;;;31.55;16.17;;;6.10;99.90;;;;;;5029682;28;20107;-82
2022/01/16 11:08:39;;;;;;;28.75;14.50;;;6.10;99.90;;;;;;5027091;28;20053;-82
2022/01/16 11:11:07;;;;;;;40.35;16.95;;;6.20;99.90;;;;;;5029446;28;20184;-89
2022/01/16 11:13:34;;;;;;;38.63;15.82;;;6.20;99.90;;;;;;5031662;28;20064;-79
2022/01/16 11:16:04;;;;;;;36.17;14.88;;;6.20;99.90;;;;;;5030260;28;20052;-81
2022/01/16 11:18:32;;;;;;;38.22;14.82;;;6.20;99.90;;;;;;5030401;28;20041;-79
2022/01/16 11:21:14;;;;;;;39.90;14.48;;;6.20;99.90;;;;;;5029900;28;20049;-80
2022/01/16 11:26:16;;;;;;;28.15;12.32;;;6.20;99.90;;;;;;5029869;28;20180;-81
2022/01/16 11:28:42;;;;;;;28.17;12.93;;;6.20;99.90;;;;;;5022004;28;20373;-87
2022/01/16 11:31:10;;;;;;;34.88;12.63;;;6.20;99.90;;;;;;5029704;28;20056;-81
2022/01/16 11:33:38;;;;;;;34.45;12.68;;;6.20;99.90;;;;;;5030506;28;20692;-86
2022/01/16 11:36:13;;;;;;;25.35;11.18;;;6.30;99.90;;;;;;5028008;28;20049;-86
2022/01/16 11:38:51;;;;;;;22.63;9.23;;;6.20;99.90;;;;;;5012394;28;20049;-78
2022/01/16 11:41:25;;;;;;;27.20;10.55;;;6.30;99.90;;;;;;5030235;28;20053;-88
2022/01/16 11:43:52;;;;;;;24.77;9.65;;;6.30;99.90;;;;;;5013595;28;20392;-81
2022/01/16 11:46:20;;;;;;;20.30;9.55;;;6.30;99.90;;;;;;5034199;28;20057;-85
2022/01/16 11:48:47;;;;;;;24.60;8.85;;;6.30;99.90;;;;;;5032819;28;20045;-87
2022/01/16 11:51:34;;;;;;;28.48;9.57;;;6.30;99.90;;;;;;5033801;28;20041;-81
2022/01/16 11:54:23;;;;;;;34.05;9.55;;;6.30;99.90;;;;;;5034165;28;20042;-86
2022/01/16 11:56:52;;;;;;;26.38;8.30;;;6.40;99.90;;;;;;5032785;28;20053;-84
2022/01/16 11:59:34;;;;;;;30.25;9.55;;;6.40;99.90;;;;;;5034202;28;20123;-83
2022/01/16 12:02:08;;;;;;;29.48;9.25;;;6.40;99.90;;;;;;5034111;28;20046;-83
2022/01/16 12:04:33;;;;;;;24.65;8.90;;;6.40;99.90;;;;;;5034302;28;20049;-83
2022/01/16 12:07:21;;;;;;;25.10;9.13;;;6.40;99.90;;;;;;5033842;28;20049;-81
2022/01/16 12:09:53;;;;;;;28.70;8.75;;;6.40;99.90;;;;;;5034025;28;20052;-83
2022/01/16 12:12:18;;;;;;;21.90;8.60;;;6.80;99.90;;;;;;5032938;28;20060;-81
2022/01/16 12:14:49;;;;;;;23.05;9.57;;;6.50;99.90;;;;;;5033789;28;20041;-82
2022/01/16 12:17:49;;;;;;;23.58;7.45;;;6.50;99.90;;;;;;5033772;28;20411;-82
2022/01/16 12:20:17;;;;;;;27.70;8.65;;;6.50;99.90;;;;;;5015808;28;20054;-88
2022/01/16 12:22:43;;;;;;;22.27;8.57;;;6.50;99.90;;;;;;5032218;28;20041;-83
2022/01/16 12:25:19;;;;;;;24.40;8.20;;;6.50;99.90;;;;;;5015742;28;20107;-86
2022/01/16 12:27:56;;;;;;;20.98;7.88;;;6.50;99.90;;;;;;5033172;28;20068;-86
2022/01/16 12:30:28;;;;;;;19.95;7.85;;;6.50;99.90;;;;;;5013940;28;20042;-83
2022/01/16 12:33:08;;;;;;;29.90;8.27;;;6.50;99.90;;;;;;5022191;28;20682;-86
2022/01/16 12:35:42;;;;;;;21.50;7.68;;;6.60;99.90;;;;;;5033208;28;20579;-85
2022/01/16 12:38:16;;;;;;;16.88;7.45;;;6.60;99.90;;;;;;5031915;28;20045;-83
2022/01/16 12:40:45;;;;;;;20.60;7.68;;;6.60;99.90;;;;;;5021953;28;20532;-85
2022/01/16 12:43:40;;;;;;;23.55;7.47;;;6.60;99.90;;;;;;5032720;28;20060;-83
2022/01/16 12:46:00;;;;;;;18.60;7.13;;;6.60;99.90;;;;;;5031348;28;20045;-80
2022/01/16 12:48:26;;;;;;;21.10;8.25;;;6.60;99.90;;;;;;5020940;28;20089;-87
2022/01/16 12:51:05;;;;;;;20.95;8.38;;;6.60;99.90;;;;;;5032995;28;20080;-85
2022/01/16 12:53:49;;;;;;;19.02;8.80;;;6.60;99.90;;;;;;5032495;28;20129;-86
2022/01/16 12:56:19;;;;;;;19.35;8.80;;;6.60;99.90;;;;;;5030369;28;20439;-87
2022/01/16 12:58:46;;;;;;;19.80;7.97;;;6.80;99.90;;;;;;5032827;28;20053;-88
2022/01/16 13:01:12;;;;;;;29.50;8.25;;;6.50;99.90;;;;;;5047748;28;20049;-81
2022/01/16 13:03:38;;;;;;;22.45;7.78;;;7.40;99.90;;;;;;5031462;28;20059;-81
2022/01/16 13:06:22;;;;;;;20.63;8.05;;;6.60;99.90;;;;;;5032936;28;20401;-84
2022/01/16 13:09:00;;;;;;;20.63;8.70;;;6.50;99.90;;;;;;5032129;28;20103;-81
2022/01/16 13:11:32;;;;;;;25.30;8.25;;;6.60;99.90;;;;;;5035395;28;20049;-85
2022/01/16 13:13:58;;;;;;;22.98;8.65;;;6.50;99.90;;;;;;5031460;28;20052;-85
2022/01/16 13:16:28;;;;;;;22.17;8.63;;;6.50;99.90;;;;;;5014914;28;20046;-86
2022/01/16 13:19:03;;;;;;;18.05;8.30;;;6.50;99.90;;;;;;5031265;28;20578;-83